createdAt,value
2018-05-01T00:00:15.190Z,994.54
2018-05-01T00:01:15.209Z,994.39
2018-05-01T00:02:15.233Z,994.53
2018-05-01T00:03:15.238Z,994.37
2018-05-01T00:04:15.264Z,994.32
2018-05-01T00:05:15.276Z,994.42
2018-05-01T00:06:15.296Z,994.34
2018-05-01T00:07:15.311Z,994.36
2018-05-01T00:08:15.327Z,994.43
2018-05-01T00:09:15.339Z,994.39
2018-05-01T00:10:15.358Z,994.38
2018-05-01T00:11:15.379Z,994.39
2018-05-01T00:12:15.395Z,994.40
2018-05-01T00:13:15.402Z,994.44
2018-05-01T00:14:15.429Z,994.30
2018-05-01T00:15:15.436Z,994.31
2018-05-01T00:16:15.452Z,994.41
2018-05-01T00:17:15.477Z,994.24
2018-05-01T00:18:15.486Z,994.47
2018-05-01T00:19:15.511Z,994.35
2018-05-01T00:20:15.520Z,994.36
2018-05-01T00:21:15.543Z,994.50
2018-05-01T00:22:15.552Z,994.53
2018-05-01T00:23:15.577Z,994.46
2018-05-01T00:24:15.596Z,994.43
2018-05-01T00:25:15.607Z,994.43
2018-05-01T00:26:15.620Z,994.45
2018-05-01T00:27:15.634Z,994.42
2018-05-01T00:28:15.651Z,994.50
2018-05-01T00:29:15.676Z,994.61
2018-05-01T00:30:15.690Z,994.42
2018-05-01T00:31:15.702Z,994.37
2018-05-01T00:32:15.725Z,994.52
2018-05-01T00:33:15.734Z,994.42
2018-05-01T00:34:15.754Z,994.42
2018-05-01T00:35:15.771Z,994.44
2018-05-01T00:36:15.792Z,994.52
2018-05-01T00:37:15.805Z,994.62
2018-05-01T00:38:15.826Z,994.57
2018-05-01T00:39:15.832Z,994.48
2018-05-01T00:40:15.857Z,994.52
2018-05-01T00:41:15.869Z,994.53
2018-05-01T00:42:15.886Z,994.50
2018-05-01T00:43:15.906Z,994.54
2018-05-01T00:44:15.923Z,994.54
2018-05-01T00:45:15.930Z,994.53
2018-05-01T00:46:15.950Z,994.64
2018-05-01T00:47:15.970Z,994.52
2018-05-01T00:48:15.980Z,994.63
2018-05-01T00:49:16.005Z,994.62
2018-05-01T00:50:16.018Z,994.68
2018-05-01T00:51:16.036Z,994.57
2018-05-01T00:52:16.053Z,994.65
2018-05-01T00:53:16.063Z,994.66
2018-05-01T00:54:16.088Z,994.54
2018-05-01T00:55:16.106Z,994.63
2018-05-01T00:56:16.114Z,994.58
2018-05-01T00:57:16.134Z,994.68
2018-05-01T00:58:16.152Z,994.61
2018-05-01T00:59:16.160Z,994.72
2018-05-01T01:00:16.176Z,994.76
2018-05-01T01:01:16.201Z,994.63
2018-05-01T01:02:16.211Z,994.64
2018-05-01T01:03:16.235Z,994.50
2018-05-01T01:04:16.248Z,994.76
2018-05-01T01:05:16.258Z,994.67
2018-05-01T01:06:16.283Z,994.78
2018-05-01T01:07:16.292Z,994.77
2018-05-01T01:08:16.310Z,994.74
2018-05-01T01:09:16.330Z,994.73
2018-05-01T01:10:16.343Z,994.81
2018-05-01T01:11:16.363Z,994.75
2018-05-01T01:12:16.378Z,994.78
2018-05-01T01:13:16.393Z,994.81
2018-05-01T01:14:16.412Z,994.83
2018-05-01T01:15:16.427Z,994.84
2018-05-01T01:16:16.443Z,994.74
2018-05-01T01:17:16.466Z,994.82
2018-05-01T01:18:16.475Z,994.84
2018-05-01T01:19:16.493Z,994.77
2018-05-01T01:20:16.515Z,994.88
2018-05-01T01:21:16.526Z,994.78
2018-05-01T01:22:16.544Z,994.80
2018-05-01T01:23:16.555Z,994.86
2018-05-01T01:24:16.579Z,994.79
2018-05-01T01:25:16.589Z,994.84
2018-05-01T01:26:16.607Z,994.88
2018-05-01T01:27:16.624Z,994.81
2018-05-01T01:28:16.640Z,994.71
2018-05-01T01:29:16.658Z,994.87
2018-05-01T01:30:16.669Z,994.85
2018-05-01T01:31:16.691Z,994.82
2018-05-01T01:32:16.706Z,994.85
2018-05-01T01:33:16.719Z,994.88
2018-05-01T01:34:16.733Z,994.98
2018-05-01T01:35:16.751Z,994.92
2018-05-01T01:36:16.769Z,994.88
2018-05-01T01:37:16.787Z,994.92
2018-05-01T01:38:16.812Z,994.93
2018-05-01T01:39:16.814Z,994.91
2018-05-01T01:40:16.833Z,994.97
2018-05-01T01:41:16.851Z,995.00
2018-05-01T01:42:16.865Z,995.02
2018-05-01T01:43:16.886Z,994.96
2018-05-01T01:44:16.904Z,995.03
2018-05-01T01:45:16.914Z,994.98
2018-05-01T01:46:16.933Z,994.99
2018-05-01T01:47:16.948Z,994.97
2018-05-01T01:48:16.970Z,995.08
2018-05-01T01:49:16.976Z,995.08
2018-05-01T01:50:16.995Z,995.03
2018-05-01T01:51:17.014Z,995.02
2018-05-01T01:52:17.026Z,995.05
2018-05-01T01:53:17.048Z,994.99
2018-05-01T01:54:17.063Z,995.09
2018-05-01T01:55:17.077Z,995.09
2018-05-01T01:56:17.091Z,995.16
2018-05-01T01:57:17.114Z,995.09
2018-05-01T01:58:17.128Z,995.14
2018-05-01T01:59:17.141Z,995.03
2018-05-01T02:00:17.163Z,994.99
2018-05-01T02:01:17.175Z,995.00
2018-05-01T02:02:17.190Z,994.93
2018-05-01T02:03:17.210Z,995.12
2018-05-01T02:04:17.222Z,995.16
2018-05-01T02:05:17.244Z,995.03
2018-05-01T02:06:17.252Z,995.26
2018-05-01T02:07:17.280Z,995.23
2018-05-01T02:08:17.293Z,995.18
2018-05-01T02:09:17.304Z,995.23
2018-05-01T02:10:17.327Z,995.27
2018-05-01T02:11:17.331Z,995.28
2018-05-01T02:12:17.352Z,995.21
2018-05-01T02:13:17.371Z,995.19
2018-05-01T02:14:17.391Z,995.27
2018-05-01T02:15:17.398Z,995.20
2018-05-01T02:16:17.419Z,995.31
2018-05-01T02:17:17.432Z,995.29
2018-05-01T02:18:17.451Z,995.22
2018-05-01T02:19:17.472Z,995.35
2018-05-01T02:20:17.488Z,995.24
2018-05-01T02:21:17.497Z,995.32
2018-05-01T02:22:17.514Z,995.26
2018-05-01T02:23:17.533Z,995.17
2018-05-01T02:24:17.544Z,995.26
2018-05-01T02:25:17.569Z,995.16
2018-05-01T02:26:17.582Z,995.27
2018-05-01T02:27:17.594Z,995.26
2018-05-01T02:28:17.613Z,995.30
2018-05-01T02:29:17.627Z,995.20
2018-05-01T02:30:17.649Z,995.26
2018-05-01T02:31:17.671Z,995.27
2018-05-01T02:32:17.676Z,995.32
2018-05-01T02:33:17.694Z,995.39
2018-05-01T02:34:17.714Z,995.29
2018-05-01T02:35:17.720Z,995.36
2018-05-01T02:36:17.738Z,995.30
2018-05-01T02:37:17.762Z,995.43
2018-05-01T02:38:17.769Z,995.33
2018-05-01T02:39:17.795Z,995.52
2018-05-01T02:40:17.810Z,995.32
2018-05-01T02:41:17.911Z,995.28
2018-05-01T02:42:17.843Z,995.38
2018-05-01T02:43:17.850Z,995.39
2018-05-01T02:44:17.870Z,995.37
2018-05-01T02:45:17.888Z,995.49
2018-05-01T02:46:17.901Z,995.43
2018-05-01T02:47:17.920Z,995.40
2018-05-01T02:48:17.976Z,995.47
2018-05-01T02:49:17.949Z,995.39
2018-05-01T02:50:17.969Z,995.39
2018-05-01T02:51:17.983Z,995.33
2018-05-01T02:52:18.002Z,995.53
2018-05-01T02:53:18.018Z,995.48
2018-05-01T02:54:18.031Z,995.44
2018-05-01T02:55:18.044Z,995.53
2018-05-01T02:56:18.061Z,995.52
2018-05-01T02:57:18.082Z,995.47
2018-05-01T02:58:18.097Z,995.54
2018-05-01T02:59:18.111Z,995.39
2018-05-01T03:00:18.125Z,995.54
2018-05-01T03:01:18.153Z,995.50
2018-05-01T03:02:18.165Z,995.55
2018-05-01T03:03:18.176Z,995.50
2018-05-01T03:04:18.192Z,995.58
2018-05-01T03:05:18.211Z,995.56
2018-05-01T03:06:18.229Z,995.42
2018-05-01T03:07:18.239Z,995.63
2018-05-01T03:08:18.260Z,995.68
2018-05-01T03:09:18.273Z,995.53
2018-05-01T03:10:18.292Z,995.60
2018-05-01T03:11:18.311Z,995.61
2018-05-01T03:12:18.328Z,995.59
2018-05-01T03:13:18.334Z,995.56
2018-05-01T03:14:18.359Z,995.68
2018-05-01T03:15:18.373Z,995.69
2018-05-01T03:16:18.392Z,995.64
2018-05-01T03:17:18.399Z,995.61
2018-05-01T03:18:18.418Z,995.76
2018-05-01T03:19:18.437Z,995.69
2018-05-01T03:20:18.453Z,995.84
2018-05-01T03:21:18.467Z,995.76
2018-05-01T03:22:18.480Z,995.71
2018-05-01T03:23:18.505Z,995.70
2018-05-01T03:24:18.515Z,995.97
2018-05-01T03:25:18.577Z,995.80
2018-05-01T03:26:18.553Z,995.70
2018-05-01T03:27:18.560Z,995.88
2018-05-01T03:28:18.583Z,995.76
2018-05-01T03:29:18.596Z,995.83
2018-05-01T03:30:18.613Z,995.73
2018-05-01T03:31:18.639Z,995.82
2018-05-01T03:32:18.647Z,995.79
2018-05-01T03:33:18.661Z,995.65
2018-05-01T03:34:18.673Z,995.73
2018-05-01T03:35:18.698Z,995.84
2018-05-01T03:36:18.710Z,995.87
2018-05-01T03:37:18.728Z,995.82
2018-05-01T03:38:18.747Z,995.94
2018-05-01T03:39:18.786Z,995.88
2018-05-01T03:40:18.777Z,995.98
2018-05-01T03:41:18.788Z,996.00
2018-05-01T03:42:18.801Z,996.05
2018-05-01T03:43:18.827Z,995.93
2018-05-01T03:44:18.838Z,995.97
2018-05-01T03:45:18.859Z,995.98
2018-05-01T03:46:18.876Z,995.99
2018-05-01T03:47:18.883Z,996.06
2018-05-01T03:48:18.903Z,996.04
2018-05-01T03:49:18.921Z,995.95
2018-05-01T03:50:18.933Z,996.10
2018-05-01T03:51:18.954Z,996.01
2018-05-01T03:52:18.969Z,995.98
2018-05-01T03:53:18.982Z,995.94
2018-05-01T03:54:19.001Z,996.07
2018-05-01T03:55:19.016Z,996.05
2018-05-01T03:56:19.031Z,996.15
2018-05-01T03:57:19.045Z,996.10
2018-05-01T03:58:19.069Z,996.05
2018-05-01T03:59:19.078Z,996.22
2018-05-01T04:00:19.102Z,996.11
2018-05-01T04:01:19.112Z,996.21
2018-05-01T04:02:19.225Z,996.17
2018-05-01T04:03:19.150Z,996.14
2018-05-01T04:04:19.157Z,996.26
2018-05-01T04:05:19.181Z,996.27
2018-05-01T04:06:19.214Z,996.25
2018-05-01T04:07:19.209Z,996.32
2018-05-01T04:08:19.226Z,996.25
2018-05-01T04:09:19.243Z,996.36
2018-05-01T04:10:19.263Z,996.28
2018-05-01T04:11:19.270Z,996.37
2018-05-01T04:12:19.287Z,996.40
2018-05-01T04:13:19.305Z,996.43
2018-05-01T04:14:19.317Z,996.19
2018-05-01T04:15:19.338Z,996.44
2018-05-01T04:16:19.361Z,996.50
2018-05-01T04:17:19.367Z,996.43
2018-05-01T04:18:19.409Z,996.43
2018-05-01T04:19:19.399Z,996.48
2018-05-01T04:20:19.426Z,996.39
2018-05-01T04:21:19.431Z,996.51
2018-05-01T04:22:19.450Z,996.57
2018-05-01T04:23:19.520Z,996.63
2018-05-01T04:24:19.487Z,996.52
2018-05-01T04:25:19.510Z,996.58
2018-05-01T04:26:19.512Z,996.58
2018-05-01T04:27:19.537Z,996.67
2018-05-01T04:28:19.547Z,996.59
2018-05-01T04:29:19.560Z,996.57
2018-05-01T04:30:19.585Z,996.60
2018-05-01T04:31:19.592Z,996.62
2018-05-01T04:32:19.615Z,996.69
2018-05-01T04:33:19.631Z,996.76
2018-05-01T04:34:19.641Z,996.92
2018-05-01T04:35:19.663Z,996.68
2018-05-01T04:36:19.679Z,996.72
2018-05-01T04:37:19.692Z,996.76
2018-05-01T04:38:19.706Z,996.84
2018-05-01T04:39:19.730Z,996.77
2018-05-01T04:40:19.741Z,996.75
2018-05-01T04:41:19.759Z,996.79
2018-05-01T04:42:19.779Z,996.82
2018-05-01T04:43:19.787Z,996.89
2018-05-01T04:44:19.807Z,996.84
2018-05-01T04:45:19.825Z,996.82
2018-05-01T04:46:19.834Z,996.91
2018-05-01T04:47:19.859Z,996.94
2018-05-01T04:48:19.875Z,996.96
2018-05-01T04:49:19.882Z,996.98
2018-05-01T04:50:19.908Z,997.03
2018-05-01T04:51:19.920Z,997.00
2018-05-01T04:52:19.940Z,997.01
2018-05-01T04:53:19.947Z,997.02
2018-05-01T04:54:19.974Z,997.09
2018-05-01T04:55:19.982Z,997.12
2018-05-01T04:56:19.998Z,997.11
2018-05-01T04:57:20.020Z,997.07
2018-05-01T04:58:20.029Z,997.13
2018-05-01T04:59:20.053Z,997.14
2018-05-01T05:00:20.064Z,997.18
2018-05-01T05:01:20.076Z,997.30
2018-05-01T05:02:20.095Z,997.33
2018-05-01T05:03:20.110Z,997.32
2018-05-01T05:04:20.131Z,997.25
2018-05-01T05:05:20.143Z,997.33
2018-05-01T05:06:20.156Z,997.35
2018-05-01T05:07:20.182Z,997.23
2018-05-01T05:08:20.195Z,997.25
2018-05-01T05:09:20.208Z,997.33
2018-05-01T05:10:20.229Z,997.38
2018-05-01T05:11:20.240Z,997.43
2018-05-01T05:12:20.257Z,997.44
2018-05-01T05:13:20.275Z,997.57
2018-05-01T05:14:20.288Z,997.47
2018-05-01T05:15:20.308Z,997.57
2018-05-01T05:16:20.320Z,997.49
2018-05-01T05:17:20.349Z,997.53
2018-05-01T05:18:20.351Z,997.60
2018-05-01T05:19:20.371Z,997.68
2018-05-01T05:20:20.387Z,997.74
2018-05-01T05:21:20.400Z,997.78
2018-05-01T05:22:20.419Z,997.73
2018-05-01T05:23:20.438Z,997.67
2018-05-01T05:24:20.455Z,997.64
2018-05-01T05:25:20.470Z,997.77
2018-05-01T05:26:20.489Z,997.72
2018-05-01T05:27:20.496Z,997.78
2018-05-01T05:28:20.520Z,997.81
2018-05-01T05:29:20.532Z,997.78
2018-05-01T05:30:20.545Z,997.83
2018-05-01T05:31:20.571Z,997.89
2018-05-01T05:32:20.587Z,997.86
2018-05-01T05:33:20.599Z,997.92
2018-05-01T05:34:20.614Z,997.94
2018-05-01T05:35:20.633Z,997.90
2018-05-01T05:36:20.710Z,997.92
2018-05-01T05:37:20.666Z,997.99
2018-05-01T05:38:20.681Z,997.97
2018-05-01T05:39:20.699Z,997.91
2018-05-01T05:40:20.713Z,998.06
2018-05-01T05:41:20.726Z,998.12
2018-05-01T05:42:20.739Z,998.09
2018-05-01T05:43:20.763Z,997.99
2018-05-01T05:44:20.775Z,998.04
2018-05-01T05:45:20.793Z,998.10
2018-05-01T05:46:20.813Z,998.19
2018-05-01T05:47:20.820Z,998.15
2018-05-01T05:48:20.837Z,998.23
2018-05-01T05:49:20.854Z,998.11
2018-05-01T05:50:20.875Z,998.30
2018-05-01T05:51:20.888Z,998.27
2018-05-01T05:52:20.914Z,998.32
2018-05-01T05:53:20.917Z,998.18
2018-05-01T05:54:21.001Z,998.30
2018-05-01T05:55:20.949Z,998.31
2018-05-01T05:56:20.975Z,998.33
2018-05-01T05:57:20.982Z,998.43
2018-05-01T05:58:21.007Z,998.35
2018-05-01T05:59:21.018Z,998.34
2018-05-01T06:00:21.032Z,998.38
2018-05-01T06:01:21.059Z,998.47
2018-05-01T06:02:21.063Z,998.32
2018-05-01T06:03:21.089Z,998.46
2018-05-01T06:04:21.107Z,998.50
2018-05-01T06:05:21.118Z,998.45
2018-05-01T06:06:21.137Z,998.46
2018-05-01T06:07:21.145Z,998.44
2018-05-01T06:08:21.163Z,998.48
2018-05-01T06:09:21.187Z,998.55
2018-05-01T06:10:21.194Z,998.54
2018-05-01T06:11:21.216Z,998.65
2018-05-01T06:12:21.233Z,998.64
2018-05-01T06:13:21.249Z,998.72
2018-05-01T06:14:21.266Z,998.71
2018-05-01T06:15:21.280Z,998.67
2018-05-01T06:16:21.296Z,998.73
2018-05-01T06:17:21.315Z,998.69
2018-05-01T06:18:21.332Z,998.76
2018-05-01T06:19:21.347Z,998.72
2018-05-01T06:20:21.358Z,998.75
2018-05-01T06:21:21.376Z,998.74
2018-05-01T06:22:21.390Z,998.72
2018-05-01T06:23:21.409Z,998.77
2018-05-01T06:24:21.435Z,998.80
2018-05-01T06:25:21.439Z,998.81
2018-05-01T06:26:21.458Z,998.81
2018-05-01T06:27:21.477Z,998.76
2018-05-01T06:28:21.492Z,998.84
2018-05-01T06:29:21.510Z,998.97
2018-05-01T06:30:21.529Z,998.99
2018-05-01T06:31:21.590Z,998.92
2018-05-01T06:32:21.559Z,998.93
2018-05-01T06:33:21.572Z,998.87
2018-05-01T06:34:21.586Z,999.07
2018-05-01T06:35:21.611Z,998.97
2018-05-01T06:36:21.619Z,998.99
2018-05-01T06:37:21.649Z,999.03
2018-05-01T06:38:21.657Z,998.90
2018-05-01T06:39:21.670Z,999.08
2018-05-01T06:40:21.693Z,999.10
2018-05-01T06:41:21.698Z,999.05
2018-05-01T06:42:21.722Z,999.12
2018-05-01T06:43:21.737Z,999.22
2018-05-01T06:44:21.752Z,999.19
2018-05-01T06:45:21.769Z,999.08
2018-05-01T06:46:21.789Z,999.24
2018-05-01T06:47:21.800Z,999.13
2018-05-01T06:48:21.815Z,999.16
2018-05-01T06:49:21.838Z,999.29
2018-05-01T06:50:21.851Z,999.28
2018-05-01T06:51:21.865Z,999.42
2018-05-01T06:52:21.884Z,999.46
2018-05-01T06:53:21.894Z,999.38
2018-05-01T06:54:21.914Z,999.54
2018-05-01T06:55:21.934Z,999.53
2018-05-01T06:56:21.951Z,999.53
2018-05-01T06:57:21.964Z,999.48
2018-05-01T06:58:21.984Z,999.58
2018-05-01T06:59:21.996Z,999.57
2018-05-01T07:00:22.016Z,999.56
2018-05-01T07:01:22.028Z,999.61
2018-05-01T07:02:22.047Z,999.58
2018-05-01T07:03:22.067Z,999.61
2018-05-01T07:04:22.181Z,999.64
2018-05-01T07:05:22.091Z,999.78
2018-05-01T07:06:22.111Z,999.76
2018-05-01T07:07:22.129Z,999.60
2018-05-01T07:08:22.141Z,999.73
2018-05-01T07:09:22.165Z,999.84
2018-05-01T07:10:22.195Z,999.78
2018-05-01T07:11:22.192Z,999.85
2018-05-01T07:12:22.215Z,999.87
2018-05-01T07:13:22.226Z,999.95
2018-05-01T07:14:22.242Z,999.88
2018-05-01T07:15:22.261Z,999.95
2018-05-01T07:16:22.282Z,999.87
2018-05-01T07:17:22.287Z,999.83
2018-05-01T07:18:22.312Z,999.87
2018-05-01T07:19:22.326Z,999.80
2018-05-01T07:20:22.337Z,1000.00
2018-05-01T07:21:22.362Z,999.98
2018-05-01T07:22:22.376Z,1000.00
2018-05-01T07:23:22.393Z,1000.03
2018-05-01T07:24:22.413Z,1000.00
2018-05-01T07:25:22.418Z,1000.01
2018-05-01T07:26:22.439Z,1000.07
2018-05-01T07:27:22.487Z,1000.10
2018-05-01T07:28:22.467Z,1000.10
2018-05-01T07:29:22.493Z,1000.00
2018-05-01T07:30:22.507Z,1000.11
2018-05-01T07:31:22.521Z,1000.04
2018-05-01T07:32:22.534Z,1000.13
2018-05-01T07:33:22.559Z,1000.12
2018-05-01T07:34:22.567Z,1000.18
2018-05-01T07:35:22.592Z,1000.19
2018-05-01T07:36:22.609Z,1000.18
2018-05-01T07:37:22.614Z,1000.27
2018-05-01T07:38:22.706Z,1000.25
2018-05-01T07:39:22.649Z,1000.18
2018-05-01T07:40:22.673Z,1000.19
2018-05-01T07:41:22.691Z,1000.24
2018-05-01T07:42:22.699Z,1000.23
2018-05-01T07:43:22.725Z,1000.30
2018-05-01T07:44:22.735Z,1000.21
2018-05-01T07:45:22.753Z,1000.39
2018-05-01T07:46:22.774Z,1000.29
2018-05-01T07:47:22.782Z,1000.50
2018-05-01T07:48:22.801Z,1000.43
2018-05-01T07:49:22.823Z,1000.32
2018-05-01T07:50:22.841Z,1000.35
2018-05-01T07:51:22.848Z,1000.35
2018-05-01T07:52:22.864Z,1000.34
2018-05-01T07:53:22.890Z,1000.41
2018-05-01T07:54:22.903Z,1000.42
2018-05-01T07:55:22.917Z,1000.45
2018-05-01T07:56:22.934Z,1000.51
2018-05-01T07:57:22.950Z,1000.55
2018-05-01T07:58:22.973Z,1000.46
2018-05-01T07:59:22.981Z,1000.48
2018-05-01T08:00:23.048Z,1000.48
2018-05-01T08:01:23.016Z,1000.56
2018-05-01T08:02:23.029Z,1000.59
2018-05-01T08:03:23.059Z,1000.61
2018-05-01T08:04:23.069Z,1000.62
2018-05-01T08:05:23.082Z,1000.68
2018-05-01T08:06:23.096Z,1000.58
2018-05-01T08:07:23.122Z,1000.64
2018-05-01T08:08:23.138Z,1000.67
2018-05-01T08:09:23.144Z,1000.61
2018-05-01T08:10:23.166Z,1000.76
2018-05-01T08:11:23.186Z,1000.64
2018-05-01T08:12:23.203Z,1000.65
2018-05-01T08:13:23.214Z,1000.74
2018-05-01T08:14:23.230Z,1000.68
2018-05-01T08:15:23.259Z,1000.76
2018-05-01T08:16:23.269Z,1000.82
2018-05-01T08:17:23.285Z,1000.82
2018-05-01T08:18:23.306Z,1000.81
2018-05-01T08:19:23.313Z,1000.72
2018-05-01T08:20:23.339Z,1000.81
2018-05-01T08:21:23.380Z,1000.84
2018-05-01T08:22:23.430Z,1000.87
2018-05-01T08:23:23.456Z,1000.95
2018-05-01T08:24:23.555Z,1000.89
2018-05-01T08:25:23.423Z,1000.94
2018-05-01T08:26:23.435Z,1000.88
2018-05-01T08:27:23.449Z,1001.05
2018-05-01T08:28:23.467Z,1001.05
2018-05-01T08:29:23.495Z,1000.99
2018-05-01T08:30:23.499Z,1001.07
2018-05-01T08:31:23.520Z,1001.05
2018-05-01T08:32:23.536Z,1001.09
2018-05-01T08:33:23.553Z,1001.09
2018-05-01T08:34:23.574Z,1001.04
2018-05-01T08:35:23.583Z,1001.14
2018-05-01T08:36:23.599Z,1001.10
2018-05-01T08:37:23.621Z,1001.10
2018-05-01T08:38:23.659Z,1001.17
2018-05-01T08:39:23.657Z,1001.31
2018-05-01T08:40:23.674Z,1001.23
2018-05-01T08:41:23.681Z,1001.33
2018-05-01T08:42:23.707Z,1001.23
2018-05-01T08:43:23.715Z,1001.27
2018-05-01T08:44:23.739Z,1001.28
2018-05-01T08:45:23.846Z,1001.33
2018-05-01T08:46:23.772Z,1001.36
2018-05-01T08:47:23.785Z,1001.49
2018-05-01T08:48:23.803Z,1001.28
2018-05-01T08:49:23.821Z,1001.41
2018-05-01T08:50:23.836Z,1001.34
2018-05-01T08:51:23.851Z,1001.35
2018-05-01T08:52:23.879Z,1001.40
2018-05-01T08:53:23.887Z,1001.44
2018-05-01T08:54:23.910Z,1001.48
2018-05-01T08:55:23.919Z,1001.62
2018-05-01T08:56:23.937Z,1001.83
2018-05-01T08:57:24.016Z,1001.66
2018-05-01T08:58:23.976Z,1001.66
2018-05-01T08:59:23.997Z,1001.60
2018-05-01T09:00:24.008Z,1001.78
2018-05-01T09:01:24.023Z,1001.86
2018-05-01T09:02:24.043Z,1001.75
2018-05-01T09:03:24.065Z,1001.75
2018-05-01T09:04:24.083Z,1001.80
2018-05-01T09:05:24.097Z,1001.70
2018-05-01T09:06:24.119Z,1001.49
2018-05-01T09:07:24.148Z,1001.66
2018-05-01T09:08:24.148Z,1001.78
2018-05-01T09:09:24.182Z,1001.74
2018-05-01T09:10:24.216Z,1001.69
2018-05-01T09:11:24.204Z,1001.73
2018-05-01T09:12:24.233Z,1001.75
2018-05-01T09:13:24.237Z,1001.74
2018-05-01T09:14:24.260Z,1001.82
2018-05-01T09:15:24.280Z,1001.84
2018-05-01T09:16:24.298Z,1001.91
2018-05-01T09:17:24.317Z,1001.86
2018-05-01T09:18:24.591Z,1001.88
2018-05-01T09:19:24.354Z,1001.91
2018-05-01T09:20:24.367Z,1002.02
2018-05-01T09:21:24.387Z,1001.98
2018-05-01T09:22:24.409Z,1001.99
2018-05-01T09:23:24.421Z,1002.01
2018-05-01T09:24:24.444Z,1002.05
2018-05-01T09:25:24.452Z,1002.00
2018-05-01T09:26:24.472Z,1002.16
2018-05-01T09:27:24.495Z,1002.11
2018-05-01T09:28:24.507Z,1002.12
2018-05-01T09:29:24.663Z,1002.08
2018-05-01T09:30:25.240Z,1002.13
2018-05-01T09:31:24.759Z,1002.19
2018-05-01T09:32:24.644Z,1002.18
2018-05-01T09:33:24.989Z,1002.20
2018-05-01T09:34:25.369Z,1002.35
2018-05-01T09:35:24.682Z,1002.29
2018-05-01T09:36:24.712Z,1002.13
2018-05-01T09:37:24.921Z,1002.26
2018-05-01T09:38:25.100Z,1002.25
2018-05-01T09:39:25.108Z,1002.48
2018-05-01T09:40:24.757Z,1002.19
2018-05-01T09:41:24.797Z,1002.24
2018-05-01T09:42:24.768Z,1002.18
2018-05-01T09:43:24.783Z,1002.63
2018-05-01T09:44:24.802Z,1002.31
2018-05-01T09:45:24.823Z,1002.26
2018-05-01T09:46:24.838Z,1002.29
2018-05-01T09:47:25.038Z,1002.41
2018-05-01T09:48:24.973Z,1002.27
2018-05-01T09:49:25.147Z,1002.26
2018-05-01T09:50:24.963Z,1002.26
2018-05-01T09:51:25.160Z,1002.23
2018-05-01T09:52:25.011Z,1002.24
2018-05-01T09:53:25.554Z,1002.26
2018-05-01T09:54:25.650Z,1002.27
2018-05-01T09:55:25.585Z,1002.16
2018-05-01T09:56:25.142Z,1002.14
2018-05-01T09:57:25.075Z,1002.16
2018-05-01T09:58:25.281Z,1002.23
2018-05-01T09:59:25.901Z,1002.28
2018-05-01T10:00:25.321Z,1002.19
2018-05-01T10:01:25.643Z,1002.81
2018-05-01T10:02:25.246Z,1002.44
2018-05-01T10:03:25.301Z,1002.27
2018-05-01T10:04:25.408Z,1002.57
2018-05-01T10:05:26.278Z,1002.53
2018-05-01T10:06:25.730Z,1002.34
2018-05-01T10:07:25.236Z,1002.25
2018-05-01T10:08:25.250Z,1002.32
2018-05-01T10:09:25.286Z,1002.25
2018-05-01T10:10:25.294Z,1002.30
2018-05-01T10:11:25.316Z,1002.42
2018-05-01T10:12:25.327Z,1002.57
2018-05-01T10:13:25.353Z,1002.41
2018-05-01T10:14:25.382Z,1002.23
2018-05-01T10:15:25.385Z,1002.35
2018-05-01T10:16:25.411Z,1002.36
2018-05-01T10:17:25.471Z,1002.36
2018-05-01T10:18:25.444Z,1002.40
2018-05-01T10:19:25.468Z,1002.48
2018-05-01T10:20:25.478Z,1002.40
2018-05-01T10:21:25.501Z,1002.51
2018-05-01T10:22:25.522Z,1002.44
2018-05-01T10:23:25.544Z,1002.56
2018-05-01T10:24:25.599Z,1002.53
2018-05-01T10:25:25.574Z,1002.52
2018-05-01T10:26:25.601Z,1002.49
2018-05-01T10:27:25.612Z,1002.55
2018-05-01T10:28:25.641Z,1002.52
2018-05-01T10:29:25.668Z,1002.58
2018-05-01T10:30:25.673Z,1002.53
2018-05-01T10:31:25.693Z,1002.67
2018-05-01T10:32:25.708Z,1002.70
2018-05-01T10:33:25.733Z,1002.69
2018-05-01T10:34:25.755Z,1002.70
2018-05-01T10:35:25.767Z,1002.92
2018-05-01T10:36:25.794Z,1002.81
2018-05-01T10:37:25.802Z,1002.74
2018-05-01T10:38:25.895Z,1002.77
2018-05-01T10:39:25.840Z,1002.89
2018-05-01T10:40:25.869Z,1002.71
2018-05-01T10:41:25.887Z,1002.72
2018-05-01T10:42:25.897Z,1002.68
2018-05-01T10:43:25.928Z,1002.85
2018-05-01T10:44:25.942Z,1002.97
2018-05-01T10:45:25.959Z,1002.83
2018-05-01T10:46:25.982Z,1003.03
2018-05-01T10:47:25.998Z,1002.81
2018-05-01T10:48:26.018Z,1003.06
2018-05-01T10:49:26.124Z,1003.37
2018-05-01T10:50:26.060Z,1003.16
2018-05-01T10:51:26.080Z,1002.79
2018-05-01T10:52:26.102Z,1002.74
2018-05-01T10:53:26.113Z,1002.68
2018-05-01T10:54:26.136Z,1002.70
2018-05-01T10:55:26.161Z,1002.63
2018-05-01T10:56:26.180Z,1002.56
2018-05-01T10:57:26.203Z,1002.60
2018-05-01T10:58:26.221Z,1002.64
2018-05-01T10:59:26.239Z,1002.70
2018-05-01T11:00:26.263Z,1002.72
2018-05-01T11:01:26.277Z,1002.81
2018-05-01T11:02:26.298Z,1002.86
2018-05-01T11:03:26.327Z,1002.76
2018-05-01T11:04:26.342Z,1002.73
2018-05-01T11:05:26.365Z,1002.74
2018-05-01T11:06:26.387Z,1002.74
2018-05-01T11:07:26.400Z,1002.76
2018-05-01T11:08:26.498Z,1002.78
2018-05-01T11:09:26.448Z,1002.80
2018-05-01T11:10:26.460Z,1002.90
2018-05-01T11:11:26.490Z,1002.91
2018-05-01T11:12:26.513Z,1002.93
2018-05-01T11:13:26.525Z,1002.98
2018-05-01T11:14:26.552Z,1002.90
2018-05-01T11:15:26.562Z,1002.96
2018-05-01T11:16:26.586Z,1003.11
2018-05-01T11:17:26.699Z,1003.03
2018-05-01T11:18:26.626Z,1003.25
2018-05-01T11:19:26.652Z,1003.15
2018-05-01T11:20:26.670Z,1003.10
2018-05-01T11:21:26.685Z,1003.07
2018-05-01T11:22:26.754Z,1003.05
2018-05-01T11:23:26.730Z,1003.19
2018-05-01T11:24:26.748Z,1003.25
2018-05-01T11:25:26.770Z,1003.34
2018-05-01T11:26:26.793Z,1003.29
2018-05-01T11:27:26.805Z,1003.42
2018-05-01T11:28:26.896Z,1003.10
2018-05-01T11:29:26.858Z,1003.03
2018-05-01T11:30:26.874Z,1003.19
2018-05-01T11:31:26.889Z,1003.28
2018-05-01T11:32:26.908Z,1003.19
2018-05-01T11:33:26.936Z,1003.34
2018-05-01T11:34:26.948Z,1003.58
2018-05-01T11:35:26.972Z,1003.56
2018-05-01T11:36:26.992Z,1003.37
2018-05-01T11:37:27.017Z,1003.57
2018-05-01T11:38:27.039Z,1003.57
2018-05-01T11:39:27.052Z,1003.36
2018-05-01T11:40:27.081Z,1003.34
2018-05-01T11:41:27.095Z,1003.41
2018-05-01T11:42:27.141Z,1003.58
2018-05-01T11:43:27.144Z,1003.75
2018-05-01T11:44:27.170Z,1003.67
2018-05-01T11:45:27.177Z,1003.41
2018-05-01T11:46:27.208Z,1003.43
2018-05-01T11:47:27.226Z,1003.32
2018-05-01T11:48:27.249Z,1003.27
2018-05-01T11:49:27.262Z,1003.57
2018-05-01T11:50:27.293Z,1003.69
2018-05-01T11:51:27.310Z,1003.52
2018-05-01T11:52:27.332Z,1003.34
2018-05-01T11:53:27.350Z,1003.34
2018-05-01T11:54:27.368Z,1004.13
2018-05-01T11:55:27.400Z,1004.11
2018-05-01T11:56:27.421Z,1003.89
2018-05-01T11:57:27.432Z,1003.89
2018-05-01T11:58:27.461Z,1003.78
2018-05-01T11:59:27.482Z,1003.75
2018-05-01T12:00:27.499Z,1003.75
2018-05-01T12:01:27.528Z,1003.63
2018-05-01T12:02:27.556Z,1003.63
2018-05-01T12:03:27.565Z,1003.62
2018-05-01T12:04:27.590Z,1003.99
2018-05-01T12:05:27.615Z,1003.67
2018-05-01T12:06:27.633Z,1004.43
2018-05-01T12:07:27.651Z,1004.29
2018-05-01T12:08:27.680Z,1004.78
2018-05-01T12:09:27.691Z,1004.66
2018-05-01T12:10:27.718Z,1004.69
2018-05-01T12:11:27.741Z,1004.35
2018-05-01T12:12:27.757Z,1004.50
2018-05-01T12:13:27.786Z,1003.69
2018-05-01T12:14:27.800Z,1004.75
2018-05-01T12:15:27.831Z,1004.58
2018-05-01T12:16:27.892Z,1005.05
2018-05-01T12:17:27.866Z,1005.14
2018-05-01T12:18:27.948Z,1005.29
2018-05-01T12:19:27.910Z,1005.19